Adona, Arkansas
Current Conditions -  °F | °C
As of 8:53 PM on Monday 26 Jan 2015 (Local Time) from KRUE Reporting Station
Clear Clear  
Wind Chill:   Ceiling: Unl
Heat Index:   Visibility: 10mi
Dew Point:   Wind: 5mph
Humidity: 79%   Direction: 50°NE
Pressure: 30"   Gusts: NA
Location:  35.04°N, 92.9°W
Report Text: KRUE 270253Z AUTO 05004KT 10SM CLR 04/01 A3000 RMK AO2 SLP157 T00390006 51007
Loading
Personal Weather Stations






























Interactive Weather Map New forecast layout! Learn more

10-Day Weather Forecast

Advertisements
Track Severe Weather on mobile